Hlavní strana
METAR-TAF:

METAR-TAF

Letiště :

Michael J. Smith Field

Beaufort, Severní Karolína, Spojené státy americké

zeměpisná šířka: 34-44-01N, zeměpisná délka: 076-39-38W, výška: 3 m

Aktuální stav počasí

Zpráva byla vytvořena před 22 minutami, v 10:58 UTC
Severoseverovýchodní vítr 5 kt
Teplota 10°C
Vlhkost vzduchu 93%
Tlak 1022 hPa
Viditelnost: 16.1 km
Skoro jasno ve výšce 6000 ft
Polojasno ve výšce 7000 ft

METAR: KMRH 241058Z AUTO 03005KT 10SM FEW060 SCT070 10/09 A3017 RMK AO2 RAE14 SLP216 P0000 T01000094

Čas: 06:20 (11:20 UTC)


TAF: chybějící

Stav a předpovědi počasí z více než 4 000 letišť (zprávy METAR a TAF).

Červené a žluté tečky na mapě představují dostupné meteorologické stanice.

Když kurzor umístíte na tečku, zobrazí se název stanice.

Pak kliknutím zobrazíte stav a předpověď počasí.

Chcete-li změnit mapu, kliknutím na zelené tlačítko se znaménkem +mapu přiblížíte, kliknutím na zelené tlačítko se znaménkem – mapu oddálíte a kliknutím na zelené šipky přejdete na sousední mapy.


METAR-TAF: